Time;durP1;ratioP1;P1;durP2;ratioP2;P2;SDS_P1;SDS_P2;PMS_P1;PMS_P2;Temp;Humidity;BMP_temperature;BMP_pressure;BME280_temperature;BME280_humidity;BME280_pressure;Samples;Min_cycle;Max_cycle;Signal;HPM_P1;HPM_P2
2022/03/24 00:01:30;;;;;;;13.27;8.60;;;18.40;51.60;;;;;;5108844;27;45533;-75
2022/03/24 00:03:57;;;;;;;10.27;7.32;;;18.40;51.50;;;;;;5109658;27;45237;-75
2022/03/24 00:06:25;;;;;;;11.38;7.82;;;18.30;50.70;;;;;;5108223;27;45231;-75
2022/03/24 00:08:52;;;;;;;11.80;7.95;;;18.30;49.70;;;;;;5108703;27;45281;-75
2022/03/24 00:11:20;;;;;;;13.35;8.50;;;18.30;49.40;;;;;;5108627;27;45334;-75
2022/03/24 00:13:48;;;;;;;11.20;7.63;;;18.30;49.20;;;;;;5108459;27;45191;-75
2022/03/24 00:16:15;;;;;;;12.57;8.20;;;18.30;49.20;;;;;;5108811;27;47423;-75
2022/03/24 00:18:42;;;;;;;12.73;8.35;;;18.30;49.10;;;;;;5108413;27;45473;-74
2022/03/24 00:21:09;;;;;;;12.20;8.65;;;18.30;48.80;;;;;;5107938;27;45222;-75
2022/03/24 00:23:37;;;;;;;13.45;8.70;;;18.30;49.30;;;;;;5109796;27;45491;-75
2022/03/24 00:26:04;;;;;;;11.20;7.57;;;18.30;48.70;;;;;;5106998;27;46174;-74
2022/03/24 00:28:32;;;;;;;12.55;8.13;;;18.30;50.20;;;;;;5105931;27;45313;-75
2022/03/24 00:30:59;;;;;;;11.27;7.30;;;18.30;50.30;;;;;;5109546;27;45300;-75
2022/03/24 00:33:25;;;;;;;11.95;7.18;;;18.30;51.30;;;;;;5107037;27;45720;-75
2022/03/24 00:35:52;;;;;;;9.23;6.60;;;18.30;51.70;;;;;;5105313;27;45314;-74
2022/03/24 00:38:19;;;;;;;12.13;7.20;;;18.30;51.30;;;;;;5108341;27;45146;-75
2022/03/24 00:40:48;;;;;;;10.80;7.32;;;18.30;51.40;;;;;;5107789;27;45196;-75
2022/03/24 00:43:15;;;;;;;9.63;7.05;;;18.40;51.40;;;;;;5105879;27;45440;-75
2022/03/24 00:45:42;;;;;;;10.45;7.05;;;18.30;51.70;;;;;;5103163;27;46601;-75
2022/03/24 00:48:10;;;;;;;12.07;7.28;;;18.40;50.60;;;;;;5104395;27;45195;-75
2022/03/24 00:50:37;;;;;;;9.75;7.10;;;18.40;50.30;;;;;;5107444;27;45292;-75
2022/03/24 00:53:05;;;;;;;10.57;7.22;;;18.30;50.10;;;;;;5105699;27;45309;-74
2022/03/24 00:55:34;;;;;;;12.07;7.53;;;18.30;48.90;;;;;;5108467;27;47397;-75
2022/03/24 00:58:02;;;;;;;11.77;7.55;;;18.30;49.50;;;;;;5109197;27;45282;-74
2022/03/24 01:00:30;;;;;;;13.40;8.60;;;18.30;48.40;;;;;;5106005;27;45552;-75
2022/03/24 01:02:58;;;;;;;13.13;7.95;;;18.30;48.80;;;;;;5099163;27;45454;-75
2022/03/24 01:05:27;;;;;;;11.40;7.50;;;18.30;48.10;;;;;;5108303;27;45213;-75
2022/03/24 01:07:55;;;;;;;13.32;7.72;;;18.30;48.30;;;;;;5106668;27;45210;-74
2022/03/24 01:10:23;;;;;;;10.60;7.60;;;18.30;47.90;;;;;;5100039;27;45213;-75
2022/03/24 01:12:50;;;;;;;12.45;7.97;;;18.30;48.70;;;;;;5107451;27;45316;-75
2022/03/24 01:15:22;;;;;;;11.90;7.30;;;18.30;48.40;;;;;;5108687;27;48778;-75
2022/03/24 01:17:49;;;;;;;11.52;7.40;;;18.30;50.70;;;;;;5091609;27;45346;-75
2022/03/24 01:20:16;;;;;;;12.70;7.00;;;18.30;50.20;;;;;;5107979;27;45299;-75
2022/03/24 01:22:43;;;;;;;10.70;7.20;;;18.30;50.50;;;;;;5108661;27;45223;-75
2022/03/24 01:25:10;;;;;;;11.07;7.40;;;18.30;49.70;;;;;;5107748;27;46420;-74
2022/03/24 01:27:38;;;;;;;11.80;7.55;;;18.30;49.90;;;;;;5108081;27;46522;-75
2022/03/24 01:30:09;;;;;;;9.90;7.10;;;18.30;48.70;;;;;;5107390;27;45252;-75
2022/03/24 01:32:37;;;;;;;9.85;7.35;;;18.30;49.00;;;;;;5108567;27;45446;-75
2022/03/24 01:35:06;;;;;;;11.68;8.05;;;18.30;48.80;;;;;;5103474;27;45244;-74
2022/03/24 01:37:33;;;;;;;11.85;8.35;;;18.30;47.70;;;;;;5107254;27;45550;-74
2022/03/24 01:40:00;;;;;;;13.65;8.50;;;18.30;47.60;;;;;;5103925;27;45231;-74
2022/03/24 01:42:27;;;;;;;12.45;8.73;;;18.30;47.60;;;;;;5108894;27;45194;-75
2022/03/24 01:44:57;;;;;;;13.25;9.20;;;18.20;47.20;;;;;;5106200;27;47786;-74
2022/03/24 01:47:24;;;;;;;15.75;9.15;;;18.20;46.20;;;;;;5103316;27;45583;-74
2022/03/24 01:49:53;;;;;;;11.75;8.40;;;18.20;46.10;;;;;;5107434;27;45216;-74
2022/03/24 01:52:23;;;;;;;11.07;8.45;;;18.20;46.60;;;;;;5104938;27;45259;-74
2022/03/24 01:54:54;;;;;;;11.63;8.23;;;18.20;47.10;;;;;;5107754;27;47672;-73
2022/03/24 01:57:21;;;;;;;11.55;8.00;;;18.20;47.10;;;;;;5106392;27;45506;-74
2022/03/24 01:59:49;;;;;;;13.52;8.23;;;18.20;47.50;;;;;;5105704;27;45220;-74
2022/03/24 02:02:17;;;;;;;11.60;7.75;;;18.20;47.40;;;;;;5107651;27;45357;-74
2022/03/24 02:04:44;;;;;;;11.10;7.55;;;18.20;49.00;;;;;;5105861;27;46571;-74
2022/03/24 02:07:13;;;;;;;12.23;7.93;;;18.20;49.70;;;;;;5107994;27;45270;-74
2022/03/24 02:09:40;;;;;;;12.40;8.05;;;18.30;50.00;;;;;;5105454;27;45234;-74
2022/03/24 02:12:09;;;;;;;12.38;8.10;;;18.20;50.00;;;;;;5108524;27;45191;-74
2022/03/24 02:14:36;;;;;;;12.50;7.68;;;18.30;50.30;;;;;;5107568;27;48554;-74
2022/03/24 02:17:04;;;;;;;13.13;7.63;;;18.30;50.40;;;;;;5107477;27;45235;-74
2022/03/24 02:19:31;;;;;;;11.02;6.85;;;18.30;50.30;;;;;;5105415;27;45289;-75
2022/03/24 02:22:03;;;;;;;11.75;7.65;;;18.30;50.20;;;;;;5107834;27;46434;-74
2022/03/24 02:24:31;;;;;;;10.32;7.43;;;18.30;50.30;;;;;;5106014;27;46385;-74
2022/03/24 02:26:59;;;;;;;12.18;7.20;;;18.30;49.60;;;;;;5107531;27;45233;-75
2022/03/24 02:29:26;;;;;;;11.98;7.13;;;18.30;49.30;;;;;;5104564;27;45334;-74
2022/03/24 02:31:53;;;;;;;12.43;8.52;;;18.30;49.50;;;;;;5106993;27;45509;-74
2022/03/24 02:37:09;;;;;;;11.38;7.38;;;18.30;48.90;;;;;;5105431;27;45323;-74
2022/03/24 02:39:38;;;;;;;10.77;7.32;;;18.30;48.60;;;;;;5106456;27;45439;-74
2022/03/24 02:42:05;;;;;;;12.50;7.57;;;18.20;48.50;;;;;;5110476;27;45363;-74
2022/03/24 02:44:33;;;;;;;9.85;6.90;;;18.20;48.10;;;;;;5106516;27;46543;-74
2022/03/24 02:47:01;;;;;;;10.75;7.80;;;18.20;48.50;;;;;;5105603;27;45358;-74
2022/03/24 02:49:31;;;;;;;13.63;7.68;;;18.30;49.20;;;;;;5106183;27;45494;-74
2022/03/24 02:51:59;;;;;;;11.07;7.60;;;18.20;48.40;;;;;;5105541;27;45256;-75
2022/03/24 02:54:30;;;;;;;10.13;6.55;;;18.30;50.00;;;;;;5107540;27;46470;-74
2022/03/24 02:56:57;;;;;;;9.90;6.65;;;18.20;50.40;;;;;;5100750;27;45172;-73
2022/03/24 02:59:25;;;;;;;12.13;7.20;;;18.30;50.30;;;;;;5108837;27;45203;-74
2022/03/24 03:01:54;;;;;;;9.95;7.15;;;18.30;50.10;;;;;;5110455;27;45230;-74
2022/03/24 03:04:21;;;;;;;10.80;6.82;;;18.30;50.40;;;;;;5104141;27;45252;-75
2022/03/24 03:06:48;;;;;;;10.32;7.18;;;18.30;50.70;;;;;;5110568;27;45168;-74
2022/03/24 03:09:17;;;;;;;9.60;7.15;;;18.30;50.20;;;;;;5106031;27;46105;-74
2022/03/24 03:11:45;;;;;;;10.70;7.38;;;18.30;50.00;;;;;;5108491;27;45212;-74
2022/03/24 03:14:13;;;;;;;10.48;7.30;;;18.30;49.80;;;;;;5110104;27;45426;-74
2022/03/24 03:16:41;;;;;;;10.57;6.78;;;18.30;49.30;;;;;;5109835;27;45103;-74
2022/03/24 03:19:08;;;;;;;13.63;7.20;;;18.30;49.00;;;;;;5107869;27;45244;-75
2022/03/24 03:21:36;;;;;;;9.88;6.72;;;18.30;48.70;;;;;;5110646;27;45366;-74
2022/03/24 03:24:03;;;;;;;11.48;7.10;;;18.30;48.80;;;;;;5110238;27;48123;-75
2022/03/24 03:26:30;;;;;;;11.38;7.30;;;18.30;48.60;;;;;;5108213;27;45234;-74
2022/03/24 03:28:59;;;;;;;12.05;8.00;;;18.30;48.40;;;;;;5103279;27;45180;-75
2022/03/24 03:31:27;;;;;;;12.35;7.78;;;18.20;48.80;;;;;;5103429;27;45315;-74
2022/03/24 03:33:54;;;;;;;12.60;7.90;;;18.30;47.90;;;;;;5110048;27;47410;-74
2022/03/24 03:36:22;;;;;;;14.43;7.68;;;18.20;48.60;;;;;;5102104;27;45174;-74
2022/03/24 03:38:49;;;;;;;14.32;7.63;;;18.20;47.90;;;;;;5109555;27;45447;-73
2022/03/24 03:41:21;;;;;;;10.32;6.63;;;18.30;48.50;;;;;;5107103;27;45570;-74
2022/03/24 03:43:48;;;;;;;11.32;6.88;;;18.20;51.30;;;;;;5108395;27;47328;-74
2022/03/24 03:46:17;;;;;;;9.63;6.60;;;18.30;50.00;;;;;;5106248;27;45253;-74
2022/03/24 03:48:45;;;;;;;12.40;7.55;;;18.30;49.80;;;;;;5106528;27;45253;-75
2022/03/24 03:51:12;;;;;;;13.38;7.03;;;18.30;49.60;;;;;;5109793;27;45555;-75
2022/03/24 03:53:39;;;;;;;11.05;6.85;;;18.30;49.60;;;;;;5107387;27;46461;-75
2022/03/24 03:56:07;;;;;;;11.52;7.22;;;18.30;49.50;;;;;;5110204;27;45229;-74
2022/03/24 03:58:35;;;;;;;12.00;6.97;;;18.30;49.80;;;;;;5107794;27;45225;-75
2022/03/24 04:01:02;;;;;;;12.00;7.47;;;18.30;49.10;;;;;;5109446;27;45338;-74
2022/03/24 04:03:31;;;;;;;11.15;7.57;;;18.30;50.30;;;;;;5108427;27;47338;-74
2022/03/24 04:05:59;;;;;;;11.98;6.55;;;18.30;48.60;;;;;;5109385;27;45380;-75
2022/03/24 04:08:27;;;;;;;11.73;6.72;;;18.20;48.80;;;;;;5108983;27;45163;-74
2022/03/24 04:10:55;;;;;;;11.30;7.88;;;18.30;48.60;;;;;;5108330;27;46606;-75
2022/03/24 04:13:22;;;;;;;10.20;6.90;;;18.30;49.20;;;;;;5107789;27;46266;-75
2022/03/24 04:15:51;;;;;;;10.52;6.57;;;18.20;48.70;;;;;;5109553;27;45348;-75
2022/03/24 04:18:18;;;;;;;13.32;7.88;;;18.20;48.60;;;;;;5108089;27;45277;-74
2022/03/24 04:20:46;;;;;;;10.63;6.82;;;18.30;48.30;;;;;;5107938;27;45444;-74
2022/03/24 04:23:13;;;;;;;12.00;6.97;;;18.20;48.50;;;;;;5109151;27;45213;-74
2022/03/24 04:25:40;;;;;;;15.45;7.60;;;18.20;48.80;;;;;;5106578;27;45499;-74
2022/03/24 04:28:08;;;;;;;12.73;7.63;;;18.20;48.40;;;;;;5109411;27;45171;-75
2022/03/24 04:30:35;;;;;;;12.85;7.07;;;18.30;49.10;;;;;;5107539;27;45286;-75
2022/03/24 04:33:04;;;;;;;13.73;7.75;;;18.20;49.20;;;;;;5099271;27;46002;-75
2022/03/24 04:35:31;;;;;;;16.20;7.25;;;18.30;49.00;;;;;;5093722;27;45170;-74
2022/03/24 04:38:00;;;;;;;12.90;7.57;;;18.30;49.20;;;;;;5107101;27;45336;-75
2022/03/24 04:40:28;;;;;;;14.95;7.50;;;18.20;48.60;;;;;;5107957;27;45566;-74
2022/03/24 04:42:55;;;;;;;13.70;7.85;;;18.30;48.80;;;;;;5109336;27;47063;-74
2022/03/24 04:45:23;;;;;;;15.45;7.50;;;18.30;48.80;;;;;;5107102;27;45255;-74
2022/03/24 04:47:51;;;;;;;12.85;7.63;;;18.30;48.80;;;;;;5106077;27;45503;-75
2022/03/24 04:50:18;;;;;;;12.95;7.07;;;18.20;48.50;;;;;;5101048;27;45428;-74
2022/03/24 04:52:45;;;;;;;13.40;7.00;;;18.20;48.50;;;;;;5106619;27;48297;-74
2022/03/24 04:55:14;;;;;;;15.45;7.95;;;18.10;48.50;;;;;;5098006;27;45349;-74
2022/03/24 04:57:41;;;;;;;15.57;7.82;;;18.10;48.10;;;;;;5103563;27;45398;-75
2022/03/24 05:00:10;;;;;;;15.60;8.80;;;18.10;48.00;;;;;;5104021;27;45286;-75
2022/03/24 05:02:37;;;;;;;19.00;9.97;;;18.10;47.70;;;;;;5103754;27;47376;-76
2022/03/24 05:05:05;;;;;;;15.50;9.82;;;18.10;46.80;;;;;;5107594;27;45224;-74
2022/03/24 05:07:32;;;;;;;16.23;9.38;;;18.10;46.30;;;;;;5108441;27;45405;-75
2022/03/24 05:09:59;;;;;;;15.65;8.55;;;18.10;46.00;;;;;;5104247;27;45379;-75
2022/03/24 05:12:27;;;;;;;16.38;9.27;;;18.00;45.50;;;;;;5107197;27;47499;-75
2022/03/24 05:14:54;;;;;;;17.40;8.68;;;18.00;46.10;;;;;;5105420;27;45280;-75
2022/03/24 05:17:21;;;;;;;15.13;9.13;;;18.00;46.30;;;;;;5104250;27;45456;-75
2022/03/24 05:19:48;;;;;;;17.90;9.50;;;18.00;46.30;;;;;;5095036;27;45503;-76
2022/03/24 05:22:16;;;;;;;15.88;8.68;;;18.00;46.40;;;;;;5106460;27;46114;-74
2022/03/24 05:24:44;;;;;;;19.97;9.73;;;18.00;46.40;;;;;;5107496;27;45539;-76
2022/03/24 05:27:11;;;;;;;16.52;9.02;;;18.00;46.50;;;;;;5102662;27;46660;-75
2022/03/24 05:29:39;;;;;;;17.73;8.73;;;18.00;46.40;;;;;;5103728;27;45354;-75
2022/03/24 05:32:07;;;;;;;15.73;8.70;;;18.00;46.80;;;;;;5103000;27;47209;-76
2022/03/24 05:34:34;;;;;;;21.25;9.48;;;17.90;46.60;;;;;;5096734;27;47485;-76
2022/03/24 05:37:01;;;;;;;16.60;8.65;;;18.00;48.60;;;;;;5102437;27;45254;-75
2022/03/24 05:39:28;;;;;;;19.70;8.95;;;18.00;48.40;;;;;;5103629;27;45365;-76
2022/03/24 05:41:56;;;;;;;16.30;8.55;;;18.00;47.40;;;;;;5103679;27;47154;-76
2022/03/24 05:44:22;;;;;;;15.80;8.82;;;17.90;47.10;;;;;;5103167;27;45678;-76
2022/03/24 05:46:51;;;;;;;15.82;8.00;;;18.00;48.10;;;;;;5093199;27;45207;-76
2022/03/24 05:49:19;;;;;;;19.35;8.70;;;18.00;48.30;;;;;;5103664;27;45400;-75
2022/03/24 05:51:47;;;;;;;16.63;8.13;;;18.00;48.70;;;;;;5103700;27;46647;-75
2022/03/24 05:54:15;;;;;;;16.02;7.68;;;18.00;49.10;;;;;;5108006;27;45126;-75
2022/03/24 05:56:42;;;;;;;17.15;7.75;;;17.90;49.10;;;;;;5108429;27;45321;-75
2022/03/24 05:59:09;;;;;;;15.30;8.35;;;17.90;49.00;;;;;;5105122;27;45252;-75
2022/03/24 06:01:36;;;;;;;14.57;7.53;;;18.00;49.20;;;;;;5106674;27;46172;-76
2022/03/24 06:04:06;;;;;;;12.55;7.07;;;18.00;49.40;;;;;;5107655;27;45294;-75
2022/03/24 06:06:34;;;;;;;14.63;7.35;;;18.00;49.80;;;;;;5105470;27;45342;-75
2022/03/24 06:09:03;;;;;;;15.02;8.07;;;18.00;49.60;;;;;;5107326;27;45174;-75
2022/03/24 06:11:31;;;;;;;13.90;7.43;;;18.00;49.60;;;;;;5102912;27;45451;-75
2022/03/24 06:13:58;;;;;;;11.50;7.18;;;18.00;49.60;;;;;;5106415;27;45296;-75
2022/03/24 06:16:25;;;;;;;15.63;8.20;;;18.00;49.60;;;;;;5105050;27;45539;-75
2022/03/24 06:18:52;;;;;;;13.13;7.07;;;18.10;49.80;;;;;;5108771;27;45293;-75
2022/03/24 06:21:20;;;;;;;13.32;7.68;;;18.10;49.70;;;;;;5110511;27;47432;-75
2022/03/24 06:23:47;;;;;;;12.35;7.35;;;18.10;49.80;;;;;;5111272;27;45167;-75
2022/03/24 06:26:14;;;;;;;14.35;7.53;;;18.10;49.70;;;;;;5108221;27;45232;-75
2022/03/24 06:28:41;;;;;;;13.75;7.18;;;18.10;50.10;;;;;;5110702;27;45443;-75
2022/03/24 06:31:08;;;;;;;15.88;7.25;;;18.10;50.10;;;;;;5109134;27;46250;-75
2022/03/24 06:33:35;;;;;;;11.77;7.05;;;18.10;50.30;;;;;;5109493;27;45321;-75
2022/03/24 06:36:02;;;;;;;14.38;6.57;;;18.10;50.30;;;;;;5109755;27;45642;-76
2022/03/24 06:38:30;;;;;;;11.98;7.50;;;18.00;50.70;;;;;;5109191;27;45443;-75
2022/03/24 06:40:57;;;;;;;12.82;7.07;;;18.00;50.40;;;;;;5104058;27;47402;-75
2022/03/24 06:43:24;;;;;;;14.30;7.28;;;18.00;50.70;;;;;;5110969;27;45616;-75
2022/03/24 06:45:51;;;;;;;11.25;6.88;;;18.10;50.40;;;;;;5110820;27;45321;-75
2022/03/24 06:48:18;;;;;;;11.48;7.35;;;18.10;50.50;;;;;;5107631;27;45312;-75
2022/03/24 06:50:45;;;;;;;11.80;6.63;;;18.10;50.40;;;;;;5109069;27;47003;-75
2022/03/24 06:53:12;;;;;;;11.43;6.88;;;18.10;50.60;;;;;;5110801;27;46015;-75
2022/03/24 06:55:41;;;;;;;13.88;7.70;;;18.10;50.30;;;;;;5107706;27;45341;-75
2022/03/24 06:58:07;;;;;;;10.55;7.20;;;18.10;49.80;;;;;;5109484;27;45396;-75
2022/03/24 07:00:34;;;;;;;12.30;7.35;;;18.10;49.70;;;;;;5109680;27;45234;-76
2022/03/24 07:03:01;;;;;;;11.82;7.57;;;18.20;49.70;;;;;;5110427;27;45610;-75
2022/03/24 07:05:28;;;;;;;14.25;7.65;;;18.20;49.60;;;;;;5110389;27;45521;-75
2022/03/24 07:07:55;;;;;;;12.63;7.90;;;18.20;49.50;;;;;;5110649;27;45296;-75
2022/03/24 07:10:22;;;;;;;11.45;7.68;;;18.20;49.50;;;;;;5101785;27;46518;-75
2022/03/24 07:12:50;;;;;;;13.00;7.85;;;18.20;49.50;;;;;;5106318;27;46061;-75
2022/03/24 07:15:17;;;;;;;11.07;7.30;;;18.20;49.70;;;;;;5108825;27;45166;-75
2022/03/24 07:17:44;;;;;;;11.98;7.53;;;18.20;49.70;;;;;;5106635;27;46973;-75
2022/03/24 07:20:11;;;;;;;12.75;7.18;;;18.20;50.00;;;;;;5106482;27;47931;-80
2022/03/24 07:22:38;;;;;;;11.32;7.40;;;18.20;50.10;;;;;;5110262;27;46135;-75
2022/03/24 07:25:06;;;;;;;12.10;7.35;;;18.10;50.30;;;;;;5107961;27;45248;-75
2022/03/24 07:27:34;;;;;;;12.27;7.28;;;18.10;50.30;;;;;;5110397;27;45264;-75
2022/03/24 07:30:03;;;;;;;15.70;7.22;;;18.10;49.90;;;;;;5097231;27;47896;-75
2022/03/24 07:32:30;;;;;;;12.13;7.53;;;18.10;50.00;;;;;;5107578;27;45452;-75
2022/03/24 07:34:57;;;;;;;11.88;8.02;;;18.10;50.00;;;;;;5110195;27;45146;-75
2022/03/24 07:37:24;;;;;;;13.98;8.60;;;18.10;48.50;;;;;;5104474;27;45180;-75
2022/03/24 07:39:51;;;;;;;14.48;8.50;;;18.10;48.50;;;;;;5109202;27;45234;-75
2022/03/24 07:42:18;;;;;;;12.32;8.25;;;18.20;48.60;;;;;;5109689;27;46008;-76
2022/03/24 07:44:45;;;;;;;13.38;8.00;;;18.20;48.90;;;;;;5108211;27;45318;-75
2022/03/24 07:47:14;;;;;;;13.27;7.50;;;18.20;49.20;;;;;;5107071;27;45326;-76
2022/03/24 07:49:40;;;;;;;13.07;8.60;;;18.20;49.60;;;;;;5109166;27;46986;-75
2022/03/24 07:52:12;;;;;;;12.25;7.90;;;18.20;48.80;;;;;;5108738;27;45240;-76
2022/03/24 07:54:50;;;;;;;11.93;7.22;;;18.20;49.40;;;;;;5109803;27;45229;-75
2022/03/24 07:57:17;;;;;;;14.85;7.93;;;18.30;49.70;;;;;;5109343;27;45574;-75
2022/03/24 07:59:44;;;;;;;14.40;8.18;;;18.20;49.40;;;;;;5106109;27;46336;-75
2022/03/24 08:02:11;;;;;;;13.27;8.43;;;18.20;49.50;;;;;;5108673;27;45253;-75
2022/03/24 08:04:39;;;;;;;16.45;9.25;;;18.30;48.60;;;;;;5110143;27;45139;-75
2022/03/24 08:07:07;;;;;;;16.95;9.50;;;18.30;48.60;;;;;;5107083;27;45292;-75
2022/03/24 08:09:34;;;;;;;14.30;9.52;;;18.20;48.80;;;;;;5108804;27;46021;-75
2022/03/24 08:12:01;;;;;;;15.80;9.38;;;18.20;48.90;;;;;;5104500;27;46212;-75
2022/03/24 08:14:28;;;;;;;14.18;8.98;;;18.20;49.00;;;;;;5107029;27;45197;-75
2022/03/24 08:16:55;;;;;;;14.00;8.43;;;18.20;49.00;;;;;;5106697;27;45686;-75
2022/03/24 08:19:22;;;;;;;14.70;9.32;;;18.20;49.10;;;;;;5108272;27;45641;-76
2022/03/24 08:21:50;;;;;;;16.20;8.20;;;18.20;49.20;;;;;;5109585;27;45352;-75
2022/03/24 08:24:17;;;;;;;13.25;9.02;;;18.20;49.20;;;;;;5109576;27;45291;-75
2022/03/24 08:26:43;;;;;;;16.83;9.52;;;18.20;49.40;;;;;;5108135;27;45427;-75
2022/03/24 08:29:11;;;;;;;15.25;8.73;;;18.20;49.30;;;;;;5106616;27;47986;-75
2022/03/24 08:31:38;;;;;;;14.93;8.00;;;18.20;49.40;;;;;;5102696;27;45468;-75
2022/03/24 08:34:05;;;;;;;12.00;7.13;;;18.20;49.70;;;;;;5107929;27;45315;-75
2022/03/24 08:36:31;;;;;;;11.10;7.57;;;18.30;49.70;;;;;;5107489;27;45342;-75
2022/03/24 08:39:00;;;;;;;11.98;7.50;;;18.30;49.60;;;;;;5107925;27;46326;-75
2022/03/24 08:41:27;;;;;;;12.13;7.47;;;18.30;49.70;;;;;;5109182;27;45235;-75
2022/03/24 08:43:54;;;;;;;11.48;7.53;;;18.30;49.70;;;;;;5108768;27;45239;-75
2022/03/24 08:46:24;;;;;;;11.57;7.75;;;18.30;49.40;;;;;;5103092;27;45326;-75
2022/03/24 08:48:52;;;;;;;12.38;7.70;;;18.30;49.80;;;;;;5106013;27;45343;-75
2022/03/24 08:51:19;;;;;;;11.85;8.10;;;18.30;49.80;;;;;;5099263;27;45178;-74
2022/03/24 08:53:47;;;;;;;14.50;8.85;;;18.30;49.50;;;;;;5107726;27;45217;-75
2022/03/24 08:56:15;;;;;;;12.80;8.00;;;18.30;49.30;;;;;;5108752;27;45456;-74
2022/03/24 08:58:43;;;;;;;13.13;8.13;;;18.20;49.40;;;;;;5107843;27;45275;-75
2022/03/24 09:01:10;;;;;;;11.50;7.63;;;18.20;49.40;;;;;;5102189;27;45582;-75
2022/03/24 09:03:37;;;;;;;16.73;10.02;;;18.30;49.10;;;;;;5108635;27;45251;-74
2022/03/24 09:06:04;;;;;;;14.40;9.50;;;18.30;49.10;;;;;;5106700;27;45318;-75
2022/03/24 09:08:31;;;;;;;14.73;9.48;;;18.30;49.10;;;;;;5107157;27;45497;-75
2022/03/24 09:10:58;;;;;;;12.50;8.60;;;18.30;49.10;;;;;;5107321;27;45254;-74
2022/03/24 09:13:26;;;;;;;15.25;9.00;;;18.20;49.20;;;;;;5108996;27;45329;-74
2022/03/24 09:15:53;;;;;;;13.43;8.45;;;18.20;49.20;;;;;;5108745;27;45149;-74
2022/03/24 09:18:20;;;;;;;12.85;8.18;;;18.20;49.40;;;;;;5104006;27;45244;-74
2022/03/24 09:20:47;;;;;;;10.88;7.50;;;18.20;49.00;;;;;;5108479;27;45263;-75
2022/03/24 09:23:14;;;;;;;13.65;8.07;;;18.30;49.40;;;;;;5108831;27;45191;-75
2022/03/24 09:25:41;;;;;;;11.45;7.88;;;18.30;49.50;;;;;;5107122;27;45522;-74
2022/03/24 09:28:08;;;;;;;14.63;8.02;;;18.30;49.40;;;;;;5108218;27;47497;-75
2022/03/24 09:30:37;;;;;;;13.38;7.38;;;18.30;49.40;;;;;;5106128;27;45268;-75
2022/03/24 09:33:04;;;;;;;14.13;7.90;;;18.40;49.20;;;;;;5106623;27;45310;-75
2022/03/24 09:35:31;;;;;;;13.18;7.82;;;18.30;49.60;;;;;;5106734;27;45454;-75
2022/03/24 09:37:58;;;;;;;11.50;8.07;;;18.30;49.40;;;;;;5108053;27;48208;-75
2022/03/24 09:40:25;;;;;;;12.63;7.65;;;18.40;49.60;;;;;;5107214;27;45181;-75
2022/03/24 09:42:52;;;;;;;13.27;8.40;;;18.30;49.30;;;;;;5107271;27;45317;-75
2022/03/24 09:45:19;;;;;;;12.90;8.65;;;18.40;49.40;;;;;;5107853;27;45128;-74
2022/03/24 09:47:48;;;;;;;14.57;8.52;;;18.30;49.50;;;;;;5104538;27;47256;-75
2022/03/24 09:50:15;;;;;;;11.57;8.05;;;18.30;49.50;;;;;;5105378;27;45509;-75
2022/03/24 09:52:42;;;;;;;15.15;8.68;;;18.30;49.30;;;;;;5108271;27;45316;-75
2022/03/24 09:55:10;;;;;;;13.15;9.18;;;18.30;49.00;;;;;;5106787;27;45523;-75
2022/03/24 09:57:37;;;;;;;13.65;8.20;;;18.30;48.70;;;;;;5108250;27;45138;-74
2022/03/24 10:00:07;;;;;;;11.90;7.05;;;18.30;48.80;;;;;;5106638;27;45231;-75
2022/03/24 10:02:34;;;;;;;13.07;8.05;;;18.30;49.10;;;;;;5107968;27;45339;-75
2022/03/24 10:05:04;;;;;;;14.02;8.18;;;18.30;49.00;;;;;;5108239;27;45286;-75
2022/03/24 10:07:44;;;;;;;10.95;7.65;;;18.30;48.80;;;;;;5105296;27;45463;-75
2022/03/24 10:10:23;;;;;;;10.02;6.97;;;18.30;48.80;;;;;;5105253;27;45487;-74
2022/03/24 10:12:50;;;;;;;11.60;7.57;;;18.30;49.50;;;;;;5106823;27;45566;-75
2022/03/24 10:15:18;;;;;;;10.93;7.45;;;18.40;49.00;;;;;;5101926;27;45477;-75
2022/03/24 10:17:51;;;;;;;11.45;7.15;;;18.40;49.30;;;;;;5101263;27;47341;-75
2022/03/24 10:20:19;;;;;;;13.25;8.15;;;18.40;49.00;;;;;;5103283;27;45293;-74
2022/03/24 10:22:54;;;;;;;13.27;8.55;;;18.40;48.90;;;;;;5106137;27;45160;-74
2022/03/24 10:25:24;;;;;;;10.15;6.93;;;18.40;48.70;;;;;;5105449;27;45472;-75
2022/03/24 10:27:52;;;;;;;12.02;7.72;;;18.40;48.80;;;;;;5104335;27;45245;-75
2022/03/24 10:30:19;;;;;;;10.77;7.50;;;18.40;48.10;;;;;;5103122;27;45395;-75
2022/03/24 10:32:56;;;;;;;13.93;8.35;;;18.40;48.10;;;;;;5106416;27;45415;-75
2022/03/24 10:35:25;;;;;;;10.93;7.70;;;18.30;47.70;;;;;;5093156;27;45114;-75
2022/03/24 10:37:53;;;;;;;11.98;7.75;;;18.40;48.40;;;;;;5106221;27;46599;-75
2022/03/24 10:40:21;;;;;;;14.30;8.25;;;18.30;48.70;;;;;;5090875;27;45150;-75
2022/03/24 10:42:48;;;;;;;15.02;8.80;;;18.30;48.50;;;;;;5107452;27;45427;-75
2022/03/24 10:45:18;;;;;;;11.63;7.95;;;18.30;47.70;;;;;;5107630;27;45219;-74
2022/03/24 10:47:51;;;;;;;13.50;9.00;;;18.30;47.80;;;;;;5101846;27;46451;-74
2022/03/24 10:50:39;;;;;;;12.30;8.05;;;18.30;49.30;;;;;;5098169;27;45416;-75
2022/03/24 10:53:08;;;;;;;9.07;6.05;;;18.30;48.10;;;;;;5107596;27;45286;-74
2022/03/24 10:55:52;;;;;;;9.05;6.18;;;18.30;49.80;;;;;;5106886;27;45514;-75
2022/03/24 10:58:23;;;;;;;10.13;6.85;;;18.30;49.90;;;;;;5092012;27;47136;-75
2022/03/24 11:00:52;;;;;;;9.20;6.40;;;18.30;49.50;;;;;;5109712;27;45244;-74
2022/03/24 11:03:20;;;;;;;12.77;6.97;;;18.30;49.50;;;;;;5106776;27;45329;-75
2022/03/24 11:05:48;;;;;;;10.18;6.72;;;18.30;49.30;;;;;;5110015;27;45422;-74
2022/03/24 11:08:17;;;;;;;9.48;6.72;;;18.30;49.20;;;;;;5106997;27;46269;-75
2022/03/24 11:10:46;;;;;;;12.10;7.18;;;18.40;49.10;;;;;;5106236;27;45255;-75
2022/03/24 11:13:22;;;;;;;8.90;6.63;;;18.40;48.80;;;;;;5109221;27;45417;-75
2022/03/24 11:15:51;;;;;;;10.27;6.43;;;18.30;48.90;;;;;;5109291;27;45346;-75
2022/03/24 11:18:17;;;;;;;9.55;6.10;;;18.30;48.60;;;;;;5107437;27;46329;-75
2022/03/24 11:20:46;;;;;;;10.38;6.68;;;18.40;48.50;;;;;;5110539;27;45191;-75
2022/03/24 11:23:34;;;;;;;10.10;6.65;;;18.30;47.80;;;;;;5111145;27;45273;-74
2022/03/24 11:26:02;;;;;;;11.45;7.18;;;18.30;47.30;;;;;;5108999;27;45277;-75
2022/03/24 11:28:33;;;;;;;11.57;6.50;;;18.30;47.70;;;;;;5106344;27;46501;-75
2022/03/24 11:31:05;;;;;;;9.18;6.50;;;18.30;47.80;;;;;;5103649;27;45177;-74
2022/03/24 11:33:39;;;;;;;10.57;7.00;;;18.30;47.40;;;;;;5103611;27;45281;-75
2022/03/24 11:36:07;;;;;;;9.63;6.60;;;18.30;47.20;;;;;;5109792;27;45289;-75
2022/03/24 11:38:37;;;;;;;10.00;7.00;;;18.30;47.80;;;;;;5106588;27;47112;-74
2022/03/24 11:41:07;;;;;;;10.48;7.13;;;18.30;47.30;;;;;;5110176;27;45272;-75
2022/03/24 11:43:36;;;;;;;13.07;7.00;;;18.30;47.10;;;;;;5107963;27;45175;-75
2022/03/24 11:46:08;;;;;;;9.35;5.95;;;18.30;47.60;;;;;;5106720;27;45275;-75
2022/03/24 11:48:36;;;;;;;9.63;6.43;;;18.40;47.70;;;;;;5102313;27;45253;-75
2022/03/24 11:51:17;;;;;;;10.68;6.53;;;18.30;47.60;;;;;;5104827;27;45277;-75
2022/03/24 11:53:45;;;;;;;10.45;6.82;;;18.30;47.40;;;;;;5100780;27;45159;-75
2022/03/24 11:56:15;;;;;;;10.07;6.45;;;18.40;47.30;;;;;;5103717;27;45341;-75
2022/03/24 11:59:22;;;;;;;9.32;6.18;;;18.40;47.10;;;;;;5106264;27;46178;-75
2022/03/24 12:02:17;;;;;;;11.43;6.72;;;18.40;46.80;;;;;;5103544;27;45656;-76
2022/03/24 12:04:49;;;;;;;9.20;6.05;;;18.40;46.90;;;;;;5098709;27;45217;-75
2022/03/24 12:07:17;;;;;;;10.52;6.82;;;18.40;48.10;;;;;;5103801;27;45571;-75
2022/03/24 12:10:00;;;;;;;8.65;5.90;;;18.40;46.80;;;;;;5101358;27;45444;-75
2022/03/24 12:12:27;;;;;;;10.40;6.65;;;18.40;47.00;;;;;;5098587;27;45507;-74
2022/03/24 12:14:54;;;;;;;10.65;7.00;;;18.40;46.70;;;;;;5105260;27;45693;-75
2022/03/24 12:17:25;;;;;;;10.70;6.82;;;18.40;46.60;;;;;;5105500;27;45215;-75
2022/03/24 12:19:53;;;;;;;9.75;6.57;;;18.40;46.30;;;;;;5102519;27;48560;-75
2022/03/24 12:22:43;;;;;;;9.63;6.38;;;18.40;46.70;;;;;;5097843;27;45295;-75
2022/03/24 12:25:29;;;;;;;9.55;6.53;;;18.40;46.70;;;;;;5102979;27;45355;-75
2022/03/24 12:28:24;;;;;;;10.15;6.43;;;18.40;46.30;;;;;;5108706;27;45232;-75
2022/03/24 12:31:08;;;;;;;11.23;6.75;;;18.50;46.30;;;;;;5100607;27;45227;-75
2022/03/24 12:33:49;;;;;;;10.10;6.88;;;18.50;46.20;;;;;;5108566;27;45226;-75
2022/03/24 12:36:40;;;;;;;9.73;6.22;;;18.40;45.70;;;;;;5105513;27;45610;-74
2022/03/24 12:39:08;;;;;;;10.73;6.60;;;18.40;46.10;;;;;;5108695;27;45340;-75
2022/03/24 12:41:36;;;;;;;9.38;6.65;;;18.40;47.80;;;;;;5105301;27;46164;-75
2022/03/24 12:44:06;;;;;;;8.70;6.00;;;18.40;46.80;;;;;;5106782;27;45628;-75
2022/03/24 12:46:39;;;;;;;11.65;6.35;;;18.40;46.80;;;;;;5100655;27;45369;-75
2022/03/24 12:49:25;;;;;;;7.95;5.80;;;18.40;47.10;;;;;;5106071;27;45204;-75